sensor_id;sensor_type;location;lat;lon;timestamp;pressure;altitude;pressure_sealevel;temperature;humidity
69622;BME280;56841;55.964;37.674;2023-02-03T20:00:22;98846.09;;;0.32;89.45
69622;BME280;56841;55.964;37.674;2023-02-03T20:02:48;98847.88;;;0.31;89.67
69622;BME280;56841;55.964;37.674;2023-02-03T20:05:13;98846.00;;;0.22;89.75
69622;BME280;56841;55.964;37.674;2023-02-03T20:07:39;98848.47;;;0.12;89.17
69622;BME280;56841;55.964;37.674;2023-02-03T20:10:05;98851.44;;;0.08;89.00
69622;BME280;56841;55.964;37.674;2023-02-03T20:12:35;98856.41;;;0.11;89.49
69622;BME280;56841;55.964;37.674;2023-02-03T20:15:01;98855.81;;;0.07;89.34
69622;BME280;56841;55.964;37.674;2023-02-03T20:17:27;98864.75;;;0.03;89.75
69622;BME280;56841;55.964;37.674;2023-02-03T20:19:53;98863.25;;;0.01;89.94
69622;BME280;56841;55.964;37.674;2023-02-03T20:22:19;98858.16;;;-0.01;90.06
69622;BME280;56841;55.964;37.674;2023-02-03T20:24:45;98869.13;;;0.03;90.68
69622;BME280;56841;55.964;37.674;2023-02-03T20:27:10;98870.81;;;0.04;90.05
69622;BME280;56841;55.964;37.674;2023-02-03T20:29:36;98876.59;;;0.07;89.96
69622;BME280;56841;55.964;37.674;2023-02-03T20:32:03;98876.81;;;0.15;89.93
69622;BME280;56841;55.964;37.674;2023-02-03T20:34:31;98869.84;;;0.16;89.38
69622;BME280;56841;55.964;37.674;2023-02-03T20:36:57;98875.03;;;0.16;89.42
69622;BME280;56841;55.964;37.674;2023-02-03T20:39:25;98881.84;;;0.17;89.17
69622;BME280;56841;55.964;37.674;2023-02-03T20:41:52;98888.81;;;0.16;88.88
69622;BME280;56841;55.964;37.674;2023-02-03T20:44:18;98880.56;;;0.22;88.79
69622;BME280;56841;55.964;37.674;2023-02-03T20:46:44;98882.94;;;0.14;88.42
69622;BME280;56841;55.964;37.674;2023-02-03T20:49:12;98895.78;;;0.16;88.17
69622;BME280;56841;55.964;37.674;2023-02-03T20:51:39;98894.16;;;0.15;88.06
69622;BME280;56841;55.964;37.674;2023-02-03T20:54:17;98893.44;;;0.13;88.11
69622;BME280;56841;55.964;37.674;2023-02-03T20:56:44;98896.16;;;0.11;88.14
69622;BME280;56841;55.964;37.674;2023-02-03T20:59:19;98895.44;;;0.20;88.37
69622;BME280;56841;55.964;37.674;2023-02-03T21:01:45;98903.84;;;0.24;87.95
69622;BME280;56841;55.964;37.674;2023-02-03T21:04:16;98902.16;;;0.34;87.96
69622;BME280;56841;55.964;37.674;2023-02-03T21:07:21;98907.00;;;0.39;87.54
69622;BME280;56841;55.964;37.674;2023-02-03T21:09:48;98911.22;;;0.40;87.31
69622;BME280;56841;55.964;37.674;2023-02-03T21:12:14;98903.44;;;0.40;87.50
69622;BME280;56841;55.964;37.674;2023-02-03T21:14:42;98900.41;;;0.35;87.68
69622;BME280;56841;55.964;37.674;2023-02-03T21:17:17;98910.66;;;0.36;88.46
69622;BME280;56841;55.964;37.674;2023-02-03T21:19:43;98914.66;;;0.40;88.92
69622;BME280;56841;55.964;37.674;2023-02-03T21:22:20;98907.19;;;0.47;88.63
69622;BME280;56841;55.964;37.674;2023-02-03T21:24:54;98912.97;;;0.51;88.16
69622;BME280;56841;55.964;37.674;2023-02-03T21:27:32;98912.16;;;0.50;87.48
69622;BME280;56841;55.964;37.674;2023-02-03T21:30:01;98917.84;;;0.55;87.51
69622;BME280;56841;55.964;37.674;2023-02-03T21:32:38;98923.84;;;0.56;87.53
69622;BME280;56841;55.964;37.674;2023-02-03T21:35:38;98918.06;;;0.52;86.85
69622;BME280;56841;55.964;37.674;2023-02-03T21:38:28;98925.16;;;0.50;86.39
69622;BME280;56841;55.964;37.674;2023-02-03T21:40:56;98928.22;;;0.55;86.71
69622;BME280;56841;55.964;37.674;2023-02-03T21:43:22;98917.31;;;0.61;86.12
69622;BME280;56841;55.964;37.674;2023-02-03T21:45:50;98923.94;;;0.65;85.49
69622;BME280;56841;55.964;37.674;2023-02-03T21:48:28;98923.00;;;0.66;84.11
69622;BME280;56841;55.964;37.674;2023-02-03T21:50:58;98927.72;;;0.61;83.71
69622;BME280;56841;55.964;37.674;2023-02-03T21:53:31;98931.97;;;0.62;83.75
69622;BME280;56841;55.964;37.674;2023-02-03T21:56:10;98924.28;;;0.61;83.03
69622;BME280;56841;55.964;37.674;2023-02-03T21:58:38;98931.03;;;0.63;83.02
69622;BME280;56841;55.964;37.674;2023-02-03T22:01:04;98931.50;;;0.57;82.39
69622;BME280;56841;55.964;37.674;2023-02-03T22:03:38;98932.09;;;0.61;82.82
69622;BME280;56841;55.964;37.674;2023-02-03T22:08:37;98935.84;;;0.68;83.20
69622;BME280;56841;55.964;37.674;2023-02-03T22:11:04;98938.81;;;0.63;82.85
69622;BME280;56841;55.964;37.674;2023-02-03T22:13:30;98938.09;;;0.61;83.17
69622;BME280;56841;55.964;37.674;2023-02-03T22:15:56;98939.41;;;0.67;83.34
69622;BME280;56841;55.964;37.674;2023-02-03T22:18:22;98942.72;;;0.69;83.26
69622;BME280;56841;55.964;37.674;2023-02-03T22:20:48;98936.44;;;0.71;83.71
69622;BME280;56841;55.964;37.674;2023-02-03T22:23:14;98939.88;;;0.72;83.11
69622;BME280;56841;55.964;37.674;2023-02-03T22:25:40;98945.06;;;0.72;83.15
69622;BME280;56841;55.964;37.674;2023-02-03T22:28:05;98931.94;;;0.74;83.06
69622;BME280;56841;55.964;37.674;2023-02-03T22:30:32;98933.59;;;0.75;82.59
69622;BME280;56841;55.964;37.674;2023-02-03T22:32:58;98938.94;;;0.73;82.26
69622;BME280;56841;55.964;37.674;2023-02-03T22:35:24;98933.00;;;0.71;82.11
69622;BME280;56841;55.964;37.674;2023-02-03T22:37:50;98937.75;;;0.66;82.13
69622;BME280;56841;55.964;37.674;2023-02-03T22:40:19;98934.69;;;0.72;81.81
69622;BME280;56841;55.964;37.674;2023-02-03T22:42:45;98947.31;;;0.77;82.15
69622;BME280;56841;55.964;37.674;2023-02-03T22:45:11;98948.38;;;0.74;81.89
69622;BME280;56841;55.964;37.674;2023-02-03T22:47:37;98946.00;;;0.82;82.23
69622;BME280;56841;55.964;37.674;2023-02-03T22:50:04;98946.94;;;0.81;82.10
69622;BME280;56841;55.964;37.674;2023-02-03T22:52:30;98959.09;;;0.81;82.37
69622;BME280;56841;55.964;37.674;2023-02-03T22:54:56;98958.84;;;0.84;82.40
69622;BME280;56841;55.964;37.674;2023-02-03T22:57:22;98956.72;;;0.89;82.49
69622;BME280;56841;55.964;37.674;2023-02-03T22:59:48;98958.72;;;0.97;82.49
69622;BME280;56841;55.964;37.674;2023-02-03T23:02:14;98955.66;;;0.91;82.52
69622;BME280;56841;55.964;37.674;2023-02-03T23:04:40;98967.09;;;0.89;82.50
69622;BME280;56841;55.964;37.674;2023-02-03T23:07:06;98960.84;;;0.91;82.58
69622;BME280;56841;55.964;37.674;2023-02-03T23:09:32;98959.66;;;0.95;82.84
69622;BME280;56841;55.964;37.674;2023-02-03T23:11:57;98958.97;;;0.93;82.50
69622;BME280;56841;55.964;37.674;2023-02-03T23:14:23;98965.22;;;0.91;82.90
69622;BME280;56841;55.964;37.674;2023-02-03T23:16:49;98961.78;;;0.90;82.90
69622;BME280;56841;55.964;37.674;2023-02-03T23:19:15;98964.97;;;0.94;83.34
69622;BME280;56841;55.964;37.674;2023-02-03T23:21:40;98967.44;;;0.95;83.28
69622;BME280;56841;55.964;37.674;2023-02-03T23:24:06;98967.72;;;0.92;83.62
69622;BME280;56841;55.964;37.674;2023-02-03T23:26:32;98967.72;;;0.92;83.93
69622;BME280;56841;55.964;37.674;2023-02-03T23:28:58;98980.00;;;0.90;84.21
69622;BME280;56841;55.964;37.674;2023-02-03T23:31:24;98965.34;;;0.89;84.32
69622;BME280;56841;55.964;37.674;2023-02-03T23:33:49;98973.63;;;0.83;84.82
69622;BME280;56841;55.964;37.674;2023-02-03T23:36:34;98972.09;;;0.81;85.47
69622;BME280;56841;55.964;37.674;2023-02-03T23:39:00;98977.19;;;0.82;85.83
69622;BME280;56841;55.964;37.674;2023-02-03T23:41:25;98978.25;;;0.80;86.16
69622;BME280;56841;55.964;37.674;2023-02-03T23:43:51;98984.97;;;0.71;86.31
69622;BME280;56841;55.964;37.674;2023-02-03T23:46:17;98982.16;;;0.74;86.90
69622;BME280;56841;55.964;37.674;2023-02-03T23:48:43;98977.44;;;0.79;87.50
69622;BME280;56841;55.964;37.674;2023-02-03T23:51:09;98983.31;;;0.81;86.87
69622;BME280;56841;55.964;37.674;2023-02-03T23:53:34;98984.13;;;0.82;87.14
69622;BME280;56841;55.964;37.674;2023-02-03T23:56:00;98987.31;;;0.85;87.26
69622;BME280;56841;55.964;37.674;2023-02-03T23:58:26;98987.22;;;0.87;87.20
